Meteo Giornale » Osservazioni meteo Germania » Memmingen Allgau Airport

ore: 01:50 - Osservazioni Meteo Memmingen Allgau Airport
Lat. 47° 59' N Lon. 10° 14' E Alt. 633 metri s.l.m.

molto_nuvoloso Europe/Berlin

15 °C

Molto Nuvoloso

Temp. 24 Ore

14 °C

27 °C

Sud/Sud-Est

11.1 Km/h

Dew point 14 °C

Umidità 93 %

Visibilità  10 Km

Il sole sorge alle ore 05:17

Il sole tramonta alle ore 21:24

Data e Ora Cielo e Fenomeni T °C DP °C Um. % Pres. hPa Vis. km Vento km/h
Oggi h: 01:50 molto_nuvoloso Molto Nuvoloso 15 14 93 1013 10 S/SE 11.1
Oggi h: 01:20 coperto Coperto 15 14 93 1013 10 S 11.1
Oggi h: 00:50 coperto Coperto 15 14 93 1014 10 S/SO 13
Oggi h: 00:20 coperto Coperto 15 14 93 1014 10 SO 13
Ieri h: 23:50 coperto Coperto 15 15 100 1013 10 S 7.4
Ieri h: 23:20 coperto Coperto 15 14 93 1012 10 N 5.5
Ieri h: 22:50 coperto Coperto 15 14 93 1014 10 S 20.3
Ieri h: 22:20 nuvoloso_piovaschi Debole Rovescio di Pioggia Temporale nelle Vicinanze 15 14 93 1012 10 NO 20.3
Ieri h: 21:50 nuvoloso_temporali Temporale con Pioggia 14 13 93 1010 4 O/NO 61.1
Ieri h: 21:20 nuvoloso_temporali Temporale nelle Vicinanze 22 14 60 1009 10 E/NE 11.1
Ieri h: 20:50 molto_nuvoloso Molto Nuvoloso 22 14 60 1008 10 E/NE 11.1
Ieri h: 20:20 sereno Sereno 21 15 68 1008 10 N/NE 9.3
Ieri h: 19:50 sereno Sereno 22 15 64 1008 10 N/NE 9.3
Ieri h: 19:20 poco_nuvoloso Poco Nuvoloso 23 15 60 1009 10 N/NE 14.8
Ieri h: 18:50 sereno Sereno 26 15 50 1009 10 N/NE 14.8
Ieri h: 18:20 poco_nuvoloso Poco Nuvoloso 25 15 53 1009 10 NE 9.3
Ieri h: 17:50 poco_nuvoloso Poco Nuvoloso 26 15 50 1009 10 NE 11.1
Ieri h: 17:20 poco_nuvoloso Poco Nuvoloso 27 15 47 1009 10 N 11.1
Ieri h: 16:50 poco_nuvoloso Poco Nuvoloso 26 13 44 1009 10 N 7.4
Ieri h: 16:20 poco_nuvoloso Poco Nuvoloso 26 14 47 1010 10 N 7.4
Ieri h: 15:50 poco_nuvoloso Poco Nuvoloso 25 14 50 1010 10 N/NE 9.3
Ieri h: 15:20 sereno Sereno 26 14 47 1010 10 N 5.5
Ieri h: 14:50 sereno Sereno 25 13 47 1010 10 N 5.5
Ieri h: 14:20 sereno Sereno 25 15 53 1010 10 N 7.4
Ieri h: 13:50 sereno Sereno 25 13 47 1011 10 N/NO 9.3
Ieri h: 13:20 sereno Sereno 24 13 50 1011 10 N 9.3
Ieri h: 12:50 sereno Sereno 24 13 50 1011 10 N 5.5
Ieri h: 12:20 sereno Sereno 23 13 53 1011 10 O 14.8
Ieri h: 11:50 sereno Sereno 23 13 53 1011 10 O 14.8
Ieri h: 11:20 sereno Sereno 22 14 60 1011 10 O 9.3
Ieri h: 10:50 sereno Sereno 22 14 60 1011 10 O 9.3
Ieri h: 10:20 sereno Sereno 22 14 60 1011 10 SO 9.3
Ieri h: 09:50 sereno Sereno 21 13 60 1011 10 O/SO 9.3
Ieri h: 09:20 sereno Sereno 21 14 64 1011 10 O/SO 11.1
Ieri h: 08:50 sereno Sereno 20 14 68 1011 10 O/SO 16.7
Ieri h: 08:20 sereno Sereno 19 14 72 1011 10 SO 9.3
Ieri h: 07:50 sereno Sereno 18 14 77 1011 10 O/SO 13
Ieri h: 07:20 sereno Sereno 18 14 77 1011 10 O/SO 7.4
Ieri h: 06:20 sereno Sereno 15 14 93 1011 10 SO 11.1
Ieri h: 05:50 sereno Sereno 15 14 93 1011 10 SO 11.1
Ieri h: 05:20 sereno Sereno 15 14 93 1011 10 SO 13
Ieri h: 04:50 nuvoloso Nuvoloso 16 14 87 1011 10 SO 14.8
Ieri h: 04:20 molto_nuvoloso Molto Nuvoloso 16 14 87 1010 10 SO 11.1
Ieri h: 03:50 coperto Coperto 15 15 100 1010 10 N 5.5
Ieri h: 03:20 coperto Coperto 15 15 100 1010 10 S/SO 7.4
Ieri h: 02:50 coperto Coperto 15 15 100 1010 10 N 3.7